sensor_id;sensor_type;location;lat;lon;timestamp;pressure;altitude;pressure_sealevel;temperature;humidity
67738;BME280;54534;43.612;1.572;2023-05-17T00:00:13;99530.44;;;18.19;51.19
67738;BME280;54534;43.612;1.572;2023-05-17T00:02:38;99526.09;;;18.18;51.04
67738;BME280;54534;43.612;1.572;2023-05-17T00:05:04;99535.03;;;18.17;51.17
67738;BME280;54534;43.612;1.572;2023-05-17T00:07:30;99528.78;;;18.18;51.02
67738;BME280;54534;43.612;1.572;2023-05-17T00:09:55;99527.06;;;18.17;51.00
67738;BME280;54534;43.612;1.572;2023-05-17T00:12:20;99523.53;;;18.16;50.84
67738;BME280;54534;43.612;1.572;2023-05-17T00:14:46;99535.91;;;18.17;50.88
67738;BME280;54534;43.612;1.572;2023-05-17T00:17:11;99528.88;;;18.16;51.24
67738;BME280;54534;43.612;1.572;2023-05-17T00:19:36;99522.69;;;18.16;50.78
67738;BME280;54534;43.612;1.572;2023-05-17T00:22:02;99524.41;;;18.17;51.29
67738;BME280;54534;43.612;1.572;2023-05-17T00:24:27;99523.53;;;18.16;50.78
67738;BME280;54534;43.612;1.572;2023-05-17T00:26:53;99515.69;;;18.15;51.05
67738;BME280;54534;43.612;1.572;2023-05-17T00:29:18;99520.16;;;18.14;51.03
67738;BME280;54534;43.612;1.572;2023-05-17T00:31:44;99513.03;;;18.15;51.20
67738;BME280;54534;43.612;1.572;2023-05-17T00:34:09;99509.50;;;18.14;50.74
67738;BME280;54534;43.612;1.572;2023-05-17T00:36:34;99513.97;;;18.14;51.11
67738;BME280;54534;43.612;1.572;2023-05-17T00:39:00;99502.47;;;18.13;50.71
67738;BME280;54534;43.612;1.572;2023-05-17T00:41:25;99501.66;;;18.12;51.02
67738;BME280;54534;43.612;1.572;2023-05-17T00:43:51;99497.16;;;18.13;51.00
67738;BME280;54534;43.612;1.572;2023-05-17T00:46:16;99498.00;;;18.14;50.87
67738;BME280;54534;43.612;1.572;2023-05-17T00:48:42;99500.78;;;18.12;50.97
67738;BME280;54534;43.612;1.572;2023-05-17T00:51:08;99501.66;;;18.12;50.99
67738;BME280;54534;43.612;1.572;2023-05-17T00:53:33;99498.13;;;18.12;51.02
67738;BME280;54534;43.612;1.572;2023-05-17T00:56:01;99501.75;;;18.11;50.60
67738;BME280;54534;43.612;1.572;2023-05-17T00:58:27;99509.72;;;18.11;50.81
67738;BME280;54534;43.612;1.572;2023-05-17T01:00:52;99504.41;;;18.11;50.96
67738;BME280;54534;43.612;1.572;2023-05-17T01:03:18;99505.25;;;18.11;51.06
67738;BME280;54534;43.612;1.572;2023-05-17T01:05:46;99498.22;;;18.10;50.72
67738;BME280;54534;43.612;1.572;2023-05-17T01:08:12;99487.56;;;18.10;50.95
67738;BME280;54534;43.612;1.572;2023-05-17T01:10:53;99490.25;;;18.10;50.62
67738;BME280;54534;43.612;1.572;2023-05-17T01:13:35;99499.22;;;18.09;50.68
67738;BME280;54534;43.612;1.572;2023-05-17T01:16:14;99501.00;;;18.09;50.95
67738;BME280;54534;43.612;1.572;2023-05-17T01:18:43;99497.50;;;18.08;50.47
67738;BME280;54534;43.612;1.572;2023-05-17T01:21:39;99501.13;;;18.07;50.77
67738;BME280;54534;43.612;1.572;2023-05-17T01:24:38;99493.16;;;18.07;50.58
67738;BME280;54534;43.612;1.572;2023-05-17T01:27:09;99488.78;;;18.06;50.83
67738;BME280;54534;43.612;1.572;2023-05-17T01:29:36;99494.97;;;18.07;50.50
67738;BME280;54534;43.612;1.572;2023-05-17T01:32:03;99494.97;;;18.07;50.84
67738;BME280;54534;43.612;1.572;2023-05-17T01:34:29;99491.44;;;18.06;50.52
67738;BME280;54534;43.612;1.572;2023-05-17T01:36:54;99487.94;;;18.06;50.53
67738;BME280;54534;43.612;1.572;2023-05-17T01:39:21;99497.72;;;18.05;50.78
67738;BME280;54534;43.612;1.572;2023-05-17T01:42:17;99500.38;;;18.05;50.51
67738;BME280;54534;43.612;1.572;2023-05-17T01:45:05;99488.06;;;18.04;50.65
67738;BME280;54534;43.612;1.572;2023-05-17T01:47:35;99487.19;;;18.04;50.89
67738;BME280;54534;43.612;1.572;2023-05-17T01:50:04;99493.38;;;18.04;50.85
67738;BME280;54534;43.612;1.572;2023-05-17T01:52:36;99493.38;;;18.04;50.62
67738;BME280;54534;43.612;1.572;2023-05-17T01:55:09;99493.38;;;18.04;50.80
67738;BME280;54534;43.612;1.572;2023-05-17T01:57:40;99492.53;;;18.04;50.85
67738;BME280;54534;43.612;1.572;2023-05-17T02:00:08;99483.69;;;18.03;50.46
67738;BME280;54534;43.612;1.572;2023-05-17T02:02:35;99485.50;;;18.03;50.72
67738;BME280;54534;43.612;1.572;2023-05-17T02:05:00;99478.50;;;18.01;50.82
67738;BME280;54534;43.612;1.572;2023-05-17T02:07:26;99478.50;;;18.01;50.34
67738;BME280;54534;43.612;1.572;2023-05-17T02:09:51;99485.63;;;18.01;50.45
67738;BME280;54534;43.612;1.572;2023-05-17T02:12:16;99479.34;;;18.02;50.70
67738;BME280;54534;43.612;1.572;2023-05-17T02:14:42;99482.00;;;18.02;50.39
67738;BME280;54534;43.612;1.572;2023-05-17T02:17:07;99485.63;;;18.01;50.51
67738;BME280;54534;43.612;1.572;2023-05-17T02:19:33;99481.25;;;18.00;50.69
67738;BME280;54534;43.612;1.572;2023-05-17T02:21:58;99482.94;;;18.01;50.68
67738;BME280;54534;43.612;1.572;2023-05-17T02:24:24;99485.72;;;17.99;50.18
67738;BME280;54534;43.612;1.572;2023-05-17T02:26:49;99483.91;;;18.00;50.71
67738;BME280;54534;43.612;1.572;2023-05-17T02:29:15;99484.88;;;17.99;50.59
67738;BME280;54534;43.612;1.572;2023-05-17T02:31:40;99481.25;;;18.00;50.80
67738;BME280;54534;43.612;1.572;2023-05-17T02:34:06;99490.19;;;17.99;50.82
67738;BME280;54534;43.612;1.572;2023-05-17T02:36:31;99500.00;;;17.98;50.30
67738;BME280;54534;43.612;1.572;2023-05-17T02:38:57;99488.50;;;17.98;50.30
67738;BME280;54534;43.612;1.572;2023-05-17T02:41:22;99489.34;;;17.98;50.41
67738;BME280;54534;43.612;1.572;2023-05-17T02:43:47;99490.31;;;17.97;50.79
67738;BME280;54534;43.612;1.572;2023-05-17T02:46:13;99485.84;;;17.98;50.59
67738;BME280;54534;43.612;1.572;2023-05-17T02:48:39;99488.50;;;17.98;50.53
67738;BME280;54534;43.612;1.572;2023-05-17T02:51:04;99492.09;;;17.97;50.40
67738;BME280;54534;43.612;1.572;2023-05-17T02:53:29;99486.78;;;17.97;50.47
67738;BME280;54534;43.612;1.572;2023-05-17T02:55:55;99485.09;;;17.96;50.23
67738;BME280;54534;43.612;1.572;2023-05-17T02:58:24;99486.78;;;17.97;50.29
67738;BME280;54534;43.612;1.572;2023-05-17T03:00:50;99496.59;;;17.96;50.36
67738;BME280;54534;43.612;1.572;2023-05-17T03:03:15;99494.03;;;17.95;50.54
67738;BME280;54534;43.612;1.572;2023-05-17T03:05:41;99496.69;;;17.95;50.47
67738;BME280;54534;43.612;1.572;2023-05-17T03:08:06;99493.19;;;17.94;50.22
67738;BME280;54534;43.612;1.572;2023-05-17T03:10:31;99497.69;;;17.94;50.44
67738;BME280;54534;43.612;1.572;2023-05-17T03:12:57;99492.34;;;17.94;50.41
67738;BME280;54534;43.612;1.572;2023-05-17T03:15:22;99494.03;;;17.95;50.09
67738;BME280;54534;43.612;1.572;2023-05-17T03:17:50;99480.84;;;17.93;50.59
67738;BME280;54534;43.612;1.572;2023-05-17T03:20:16;99480.84;;;17.93;50.42
67738;BME280;54534;43.612;1.572;2023-05-17T03:22:42;99474.69;;;17.93;50.48
67738;BME280;54534;43.612;1.572;2023-05-17T03:25:08;99482.66;;;17.93;50.05
67738;BME280;54534;43.612;1.572;2023-05-17T03:27:33;99482.66;;;17.93;50.28
67738;BME280;54534;43.612;1.572;2023-05-17T03:29:58;99481.72;;;17.94;50.48
67738;BME280;54534;43.612;1.572;2023-05-17T03:32:24;99483.75;;;17.90;50.18
67738;BME280;54534;43.612;1.572;2023-05-17T03:34:50;99488.94;;;17.92;50.08
67738;BME280;54534;43.612;1.572;2023-05-17T03:37:15;99491.59;;;17.92;50.07
67738;BME280;54534;43.612;1.572;2023-05-17T03:39:41;99499.56;;;17.92;50.50
67738;BME280;54534;43.612;1.572;2023-05-17T03:42:06;99494.38;;;17.90;50.52
67738;BME280;54534;43.612;1.572;2023-05-17T03:44:32;99496.19;;;17.89;50.39
67738;BME280;54534;43.612;1.572;2023-05-17T03:46:57;99490.00;;;17.89;50.32
67738;BME280;54534;43.612;1.572;2023-05-17T03:49:22;99485.53;;;17.89;50.42
67738;BME280;54534;43.612;1.572;2023-05-17T03:51:48;99488.19;;;17.89;50.42
67738;BME280;54534;43.612;1.572;2023-05-17T03:54:13;99488.19;;;17.89;50.50
67738;BME280;54534;43.612;1.572;2023-05-17T03:56:39;99486.53;;;17.88;50.36
67738;BME280;54534;43.612;1.572;2023-05-17T03:59:04;99489.19;;;17.88;50.22
67738;BME280;54534;43.612;1.572;2023-05-17T04:01:30;99493.66;;;17.88;50.27
67738;BME280;54534;43.612;1.572;2023-05-17T04:03:55;99491.00;;;17.88;49.88
67738;BME280;54534;43.612;1.572;2023-05-17T04:06:20;99487.47;;;17.87;50.19
67738;BME280;54534;43.612;1.572;2023-05-17T04:08:46;99494.59;;;17.87;50.48
67738;BME280;54534;43.612;1.572;2023-05-17T04:11:11;99489.28;;;17.87;50.22
67738;BME280;54534;43.612;1.572;2023-05-17T04:13:38;99487.59;;;17.86;50.14
67738;BME280;54534;43.612;1.572;2023-05-17T04:16:05;99479.63;;;17.86;49.98
67738;BME280;54534;43.612;1.572;2023-05-17T04:18:35;99488.41;;;17.86;50.39
67738;BME280;54534;43.612;1.572;2023-05-17T04:21:01;99489.41;;;17.85;49.95
67738;BME280;54534;43.612;1.572;2023-05-17T04:23:27;99496.41;;;17.86;50.25
67738;BME280;54534;43.612;1.572;2023-05-17T04:25:52;99486.84;;;17.84;50.28
67738;BME280;54534;43.612;1.572;2023-05-17T04:28:18;99487.69;;;17.84;49.97
67738;BME280;54534;43.612;1.572;2023-05-17T04:30:45;99485.03;;;17.84;49.92
67738;BME280;54534;43.612;1.572;2023-05-17T04:33:12;99486.00;;;17.83;50.35
67738;BME280;54534;43.612;1.572;2023-05-17T04:35:39;99480.69;;;17.83;50.14
67738;BME280;54534;43.612;1.572;2023-05-17T04:38:05;99481.63;;;17.82;50.07
67738;BME280;54534;43.612;1.572;2023-05-17T04:40:31;99489.63;;;17.82;50.06
67738;BME280;54534;43.612;1.572;2023-05-17T04:42:56;99487.81;;;17.83;50.03
67738;BME280;54534;43.612;1.572;2023-05-17T04:45:22;99493.13;;;17.83;50.13
67738;BME280;54534;43.612;1.572;2023-05-17T04:47:47;99498.53;;;17.81;50.15
67738;BME280;54534;43.612;1.572;2023-05-17T04:50:14;99499.53;;;17.80;49.96
67738;BME280;54534;43.612;1.572;2023-05-17T04:52:39;99501.22;;;17.81;50.08
67738;BME280;54534;43.612;1.572;2023-05-17T04:55:05;99492.41;;;17.81;50.29
67738;BME280;54534;43.612;1.572;2023-05-17T04:57:31;99495.88;;;17.81;49.83
67738;BME280;54534;43.612;1.572;2023-05-17T04:59:56;99501.22;;;17.81;50.28
67738;BME280;54534;43.612;1.572;2023-05-17T05:02:22;99508.38;;;17.81;50.30
67738;BME280;54534;43.612;1.572;2023-05-17T05:04:47;99509.19;;;17.81;49.83
67738;BME280;54534;43.612;1.572;2023-05-17T05:07:12;99511.03;;;17.81;49.97
67738;BME280;54534;43.612;1.572;2023-05-17T05:09:38;99511.03;;;17.81;50.09
67738;BME280;54534;43.612;1.572;2023-05-17T05:12:03;99508.38;;;17.81;50.02
67738;BME280;54534;43.612;1.572;2023-05-17T05:14:29;99519.00;;;17.81;50.27
67738;BME280;54534;43.612;1.572;2023-05-17T05:16:55;99519.00;;;17.81;49.94
67738;BME280;54534;43.612;1.572;2023-05-17T05:19:20;99521.66;;;17.81;50.32
67738;BME280;54534;43.612;1.572;2023-05-17T05:21:46;99524.31;;;17.81;49.97
67738;BME280;54534;43.612;1.572;2023-05-17T05:24:11;99523.47;;;17.80;50.24
67738;BME280;54534;43.612;1.572;2023-05-17T05:26:36;99525.16;;;17.81;49.92
67738;BME280;54534;43.612;1.572;2023-05-17T05:29:02;99534.97;;;17.81;49.93
67738;BME280;54534;43.612;1.572;2023-05-17T05:31:28;99527.06;;;17.79;49.99
67738;BME280;54534;43.612;1.572;2023-05-17T05:33:54;99534.09;;;17.80;50.06
67738;BME280;54534;43.612;1.572;2023-05-17T05:36:19;99532.38;;;17.79;49.77
67738;BME280;54534;43.612;1.572;2023-05-17T05:38:45;99533.25;;;17.79;50.29
67738;BME280;54534;43.612;1.572;2023-05-17T05:41:10;99535.78;;;17.81;50.44
67738;BME280;54534;43.612;1.572;2023-05-17T05:43:36;99537.50;;;17.82;50.59
67738;BME280;54534;43.612;1.572;2023-05-17T05:46:02;99539.31;;;17.82;50.57
67738;BME280;54534;43.612;1.572;2023-05-17T05:48:27;99539.22;;;17.83;50.28
67738;BME280;54534;43.612;1.572;2023-05-17T05:50:53;99533.88;;;17.83;50.50
67738;BME280;54534;43.612;1.572;2023-05-17T05:53:18;99538.34;;;17.83;50.13
67738;BME280;54534;43.612;1.572;2023-05-17T05:55:43;99537.50;;;17.82;50.27
67738;BME280;54534;43.612;1.572;2023-05-17T05:58:09;99537.50;;;17.82;49.85
67738;BME280;54534;43.612;1.572;2023-05-17T06:00:34;99530.47;;;17.81;49.98
67738;BME280;54534;43.612;1.572;2023-05-17T06:03:00;99534.84;;;17.82;49.84
67738;BME280;54534;43.612;1.572;2023-05-17T06:05:25;99534.97;;;17.81;49.86
67738;BME280;54534;43.612;1.572;2023-05-17T06:07:51;99540.28;;;17.81;50.32
67738;BME280;54534;43.612;1.572;2023-05-17T06:10:16;99541.09;;;17.81;49.72
67738;BME280;54534;43.612;1.572;2023-05-17T06:12:42;99545.59;;;17.81;49.69
67738;BME280;54534;43.612;1.572;2023-05-17T06:15:07;99542.09;;;17.80;50.13
67738;BME280;54534;43.612;1.572;2023-05-17T06:17:33;99544.75;;;17.80;49.56
67738;BME280;54534;43.612;1.572;2023-05-17T06:19:58;99550.06;;;17.80;49.89
67738;BME280;54534;43.612;1.572;2023-05-17T06:22:24;99542.09;;;17.80;49.72
67738;BME280;54534;43.612;1.572;2023-05-17T06:24:49;99551.88;;;17.79;49.65
67738;BME280;54534;43.612;1.572;2023-05-17T06:27:14;99549.22;;;17.79;49.90
67738;BME280;54534;43.612;1.572;2023-05-17T06:29:40;99548.34;;;17.79;50.16
67738;BME280;54534;43.612;1.572;2023-05-17T06:32:06;99557.19;;;17.79;49.64
67738;BME280;54534;43.612;1.572;2023-05-17T06:34:31;99557.31;;;17.78;49.66
67738;BME280;54534;43.612;1.572;2023-05-17T06:36:57;99557.31;;;17.78;49.86
67738;BME280;54534;43.612;1.572;2023-05-17T06:39:23;99558.25;;;17.77;49.61
67738;BME280;54534;43.612;1.572;2023-05-17T06:41:48;99566.97;;;17.79;49.77
67738;BME280;54534;43.612;1.572;2023-05-17T06:44:14;99559.13;;;17.77;49.71
67738;BME280;54534;43.612;1.572;2023-05-17T06:46:39;99567.09;;;17.77;49.88
67738;BME280;54534;43.612;1.572;2023-05-17T06:49:05;99560.91;;;17.77;49.94
67738;BME280;54534;43.612;1.572;2023-05-17T06:51:30;99561.78;;;17.77;49.70
67738;BME280;54534;43.612;1.572;2023-05-17T06:53:55;99560.91;;;17.77;49.59
67738;BME280;54534;43.612;1.572;2023-05-17T06:56:21;99564.53;;;17.76;49.76
67738;BME280;54534;43.612;1.572;2023-05-17T06:58:46;99566.22;;;17.77;49.85
67738;BME280;54534;43.612;1.572;2023-05-17T07:01:12;99563.56;;;17.77;49.59
67738;BME280;54534;43.612;1.572;2023-05-17T07:03:37;99565.38;;;17.76;49.63
67738;BME280;54534;43.612;1.572;2023-05-17T07:06:03;99575.91;;;17.78;49.65
67738;BME280;54534;43.612;1.572;2023-05-17T07:08:29;99568.03;;;17.76;49.95
67738;BME280;54534;43.612;1.572;2023-05-17T07:10:54;99570.69;;;17.76;49.48
67738;BME280;54534;43.612;1.572;2023-05-17T07:13:19;99569.84;;;17.76;49.72
67738;BME280;54534;43.612;1.572;2023-05-17T07:15:45;99564.53;;;17.76;49.38
67738;BME280;54534;43.612;1.572;2023-05-17T07:18:11;99566.34;;;17.75;49.68
67738;BME280;54534;43.612;1.572;2023-05-17T07:20:36;99562.72;;;17.76;49.67
67738;BME280;54534;43.612;1.572;2023-05-17T07:23:02;99559.19;;;17.76;49.82
67738;BME280;54534;43.612;1.572;2023-05-17T07:25:27;99566.22;;;17.77;49.39
67738;BME280;54534;43.612;1.572;2023-05-17T07:27:53;99555.72;;;17.75;49.40
67738;BME280;54534;43.612;1.572;2023-05-17T07:30:18;99569.84;;;17.76;49.42
67738;BME280;54534;43.612;1.572;2023-05-17T07:32:44;99569.00;;;17.75;49.64
67738;BME280;54534;43.612;1.572;2023-05-17T07:35:09;99564.53;;;17.76;49.31
67738;BME280;54534;43.612;1.572;2023-05-17T07:37:35;99567.19;;;17.76;49.50
67738;BME280;54534;43.612;1.572;2023-05-17T07:40:00;99566.34;;;17.75;49.65
67738;BME280;54534;43.612;1.572;2023-05-17T07:42:26;99562.84;;;17.75;49.56
67738;BME280;54534;43.612;1.572;2023-05-17T07:44:51;99566.34;;;17.75;49.65
67738;BME280;54534;43.612;1.572;2023-05-17T07:47:16;99567.19;;;17.76;49.64
67738;BME280;54534;43.612;1.572;2023-05-17T07:49:42;99565.50;;;17.75;49.29
67738;BME280;54534;43.612;1.572;2023-05-17T07:52:07;99565.50;;;17.75;49.37
67738;BME280;54534;43.612;1.572;2023-05-17T07:54:33;99568.16;;;17.75;49.63
67738;BME280;54534;43.612;1.572;2023-05-17T07:56:58;99557.53;;;17.75;49.59
67738;BME280;54534;43.612;1.572;2023-05-17T07:59:24;99564.53;;;17.76;49.78
67738;BME280;54534;43.612;1.572;2023-05-17T08:01:50;99564.53;;;17.76;49.64
67738;BME280;54534;43.612;1.572;2023-05-17T08:04:16;99560.19;;;17.75;49.35
67738;BME280;54534;43.612;1.572;2023-05-17T08:06:43;99559.31;;;17.74;49.80
67738;BME280;54534;43.612;1.572;2023-05-17T08:09:11;99556.66;;;17.74;49.52
67738;BME280;54534;43.612;1.572;2023-05-17T08:11:36;99560.19;;;17.75;49.27
67738;BME280;54534;43.612;1.572;2023-05-17T08:14:05;99552.19;;;17.75;49.83
67738;BME280;54534;43.612;1.572;2023-05-17T08:16:31;99553.06;;;17.75;49.74
67738;BME280;54534;43.612;1.572;2023-05-17T08:18:56;99552.19;;;17.75;49.68
67738;BME280;54534;43.612;1.572;2023-05-17T08:21:22;99554.00;;;17.74;49.68
67738;BME280;54534;43.612;1.572;2023-05-17T08:23:47;99547.81;;;17.74;49.30
67738;BME280;54534;43.612;1.572;2023-05-17T08:26:12;99545.16;;;17.74;49.44
67738;BME280;54534;43.612;1.572;2023-05-17T08:28:38;99542.50;;;17.74;49.13
67738;BME280;54534;43.612;1.572;2023-05-17T08:31:04;99550.50;;;17.74;49.69
67738;BME280;54534;43.612;1.572;2023-05-17T08:33:30;99539.84;;;17.74;49.25
67738;BME280;54534;43.612;1.572;2023-05-17T08:35:57;99546.88;;;17.75;49.57
67738;BME280;54534;43.612;1.572;2023-05-17T08:38:25;99536.25;;;17.75;49.63
67738;BME280;54534;43.612;1.572;2023-05-17T08:40:55;99534.53;;;17.74;49.05
67738;BME280;54534;43.612;1.572;2023-05-17T08:43:21;99539.13;;;17.72;49.54
67738;BME280;54534;43.612;1.572;2023-05-17T08:45:48;99537.19;;;17.74;49.37
67738;BME280;54534;43.612;1.572;2023-05-17T08:48:14;99538.03;;;17.74;49.22
67738;BME280;54534;43.612;1.572;2023-05-17T08:50:41;99533.69;;;17.73;49.32
67738;BME280;54534;43.612;1.572;2023-05-17T08:53:09;99530.06;;;17.74;49.64
67738;BME280;54534;43.612;1.572;2023-05-17T08:55:35;99533.69;;;17.73;49.50
67738;BME280;54534;43.612;1.572;2023-05-17T08:58:03;99534.53;;;17.74;49.31
67738;BME280;54534;43.612;1.572;2023-05-17T09:00:30;99530.19;;;17.73;49.27
67738;BME280;54534;43.612;1.572;2023-05-17T09:02:58;99534.53;;;17.74;49.24
67738;BME280;54534;43.612;1.572;2023-05-17T09:05:23;99527.41;;;17.74;49.35
67738;BME280;54534;43.612;1.572;2023-05-17T09:07:49;99528.25;;;17.75;49.53
67738;BME280;54534;43.612;1.572;2023-05-17T09:10:15;99523.03;;;17.73;49.16
67738;BME280;54534;43.612;1.572;2023-05-17T09:12:41;99522.09;;;17.74;49.05
67738;BME280;54534;43.612;1.572;2023-05-17T09:15:20;99523.03;;;17.73;49.07
67738;BME280;54534;43.612;1.572;2023-05-17T09:17:55;99520.38;;;17.73;49.42
67738;BME280;54534;43.612;1.572;2023-05-17T09:20:28;99520.38;;;17.73;49.17
67738;BME280;54534;43.612;1.572;2023-05-17T09:23:08;99521.22;;;17.74;49.41
67738;BME280;54534;43.612;1.572;2023-05-17T09:25:35;99511.56;;;17.73;49.28
67738;BME280;54534;43.612;1.572;2023-05-17T09:28:02;99504.41;;;17.73;49.20
67738;BME280;54534;43.612;1.572;2023-05-17T09:30:30;99510.59;;;17.74;49.38
67738;BME280;54534;43.612;1.572;2023-05-17T09:32:56;99506.13;;;17.74;49.20
67738;BME280;54534;43.612;1.572;2023-05-17T09:35:29;99501.75;;;17.73;48.97
67738;BME280;54534;43.612;1.572;2023-05-17T09:38:06;99514.13;;;17.74;49.28
67738;BME280;54534;43.612;1.572;2023-05-17T09:40:32;99508.91;;;17.73;49.39
67738;BME280;54534;43.612;1.572;2023-05-17T09:42:58;99509.75;;;17.73;49.39
67738;BME280;54534;43.612;1.572;2023-05-17T09:45:24;99507.94;;;17.74;49.11
67738;BME280;54534;43.612;1.572;2023-05-17T09:47:50;99504.41;;;17.73;49.06
67738;BME280;54534;43.612;1.572;2023-05-17T09:50:20;99507.94;;;17.74;49.22
67738;BME280;54534;43.612;1.572;2023-05-17T09:52:46;99507.94;;;17.74;48.86
67738;BME280;54534;43.612;1.572;2023-05-17T09:55:12;99501.75;;;17.73;48.90
67738;BME280;54534;43.612;1.572;2023-05-17T09:57:38;99518.56;;;17.74;49.35
67738;BME280;54534;43.612;1.572;2023-05-17T10:00:06;99507.94;;;17.74;49.11
67738;BME280;54534;43.612;1.572;2023-05-17T10:02:44;99504.34;;;17.75;49.17
67738;BME280;54534;43.612;1.572;2023-05-17T10:05:12;99509.66;;;17.75;49.33
67738;BME280;54534;43.612;1.572;2023-05-17T10:07:39;99501.66;;;17.75;49.00
67738;BME280;54534;43.612;1.572;2023-05-17T10:10:06;99500.81;;;17.74;49.18
67738;BME280;54534;43.612;1.572;2023-05-17T10:12:32;99498.16;;;17.74;49.34
67738;BME280;54534;43.612;1.572;2023-05-17T10:15:00;99502.63;;;17.74;49.24
67738;BME280;54534;43.612;1.572;2023-05-17T10:17:26;99491.97;;;17.74;49.05
67738;BME280;54534;43.612;1.572;2023-05-17T10:19:54;99497.31;;;17.74;48.82
67738;BME280;54534;43.612;1.572;2023-05-17T10:22:20;99491.97;;;17.74;48.84
67738;BME280;54534;43.612;1.572;2023-05-17T10:24:47;99491.97;;;17.74;49.31
67738;BME280;54534;43.612;1.572;2023-05-17T10:27:13;99499.88;;;17.75;49.33
67738;BME280;54534;43.612;1.572;2023-05-17T10:29:40;99491.97;;;17.74;48.93
67738;BME280;54534;43.612;1.572;2023-05-17T10:32:06;99500.81;;;17.74;48.89
67738;BME280;54534;43.612;1.572;2023-05-17T10:34:36;99481.34;;;17.74;48.78
67738;BME280;54534;43.612;1.572;2023-05-17T10:37:03;99491.97;;;17.74;48.72
67738;BME280;54534;43.612;1.572;2023-05-17T10:39:29;99486.66;;;17.74;49.20
67738;BME280;54534;43.612;1.572;2023-05-17T10:41:56;99495.50;;;17.74;49.08
67738;BME280;54534;43.612;1.572;2023-05-17T10:44:23;99481.34;;;17.74;48.89
67738;BME280;54534;43.612;1.572;2023-05-17T10:46:56;99484.84;;;17.74;49.04
67738;BME280;54534;43.612;1.572;2023-05-17T10:49:24;99489.31;;;17.74;48.78
67738;BME280;54534;43.612;1.572;2023-05-17T10:51:51;99472.50;;;17.73;48.75
67738;BME280;54534;43.612;1.572;2023-05-17T10:54:17;99470.69;;;17.74;49.12
67738;BME280;54534;43.612;1.572;2023-05-17T10:56:52;99475.06;;;17.75;49.10
67738;BME280;54534;43.612;1.572;2023-05-17T10:59:27;99467.09;;;17.75;48.71
67738;BME280;54534;43.612;1.572;2023-05-17T11:02:13;99461.78;;;17.75;48.66
67738;BME280;54534;43.612;1.572;2023-05-17T11:04:49;99459.22;;;17.73;49.07
67738;BME280;54534;43.612;1.572;2023-05-17T11:07:19;99457.41;;;17.74;48.92
67738;BME280;54534;43.612;1.572;2023-05-17T11:15:03;99449.44;;;17.74;48.92
67738;BME280;54534;43.612;1.572;2023-05-17T11:20:29;99443.25;;;17.73;49.08
67738;BME280;54534;43.612;1.572;2023-05-17T11:23:00;99444.13;;;17.74;48.96
67738;BME280;54534;43.612;1.572;2023-05-17T11:25:30;99443.25;;;17.73;49.05
67738;BME280;54534;43.612;1.572;2023-05-17T11:27:56;99450.28;;;17.74;49.12
67738;BME280;54534;43.612;1.572;2023-05-17T11:30:29;99447.63;;;17.74;48.88
67738;BME280;54534;43.612;1.572;2023-05-17T11:35:31;99437.94;;;17.73;48.78
67738;BME280;54534;43.612;1.572;2023-05-17T11:38:22;99441.44;;;17.74;48.68
67738;BME280;54534;43.612;1.572;2023-05-17T11:40:54;99437.94;;;17.73;48.83
67738;BME280;54534;43.612;1.572;2023-05-17T11:43:21;99431.66;;;17.74;48.93
67738;BME280;54534;43.612;1.572;2023-05-17T11:45:53;99427.31;;;17.73;49.17
67738;BME280;54534;43.612;1.572;2023-05-17T11:48:21;99433.47;;;17.74;49.15
67738;BME280;54534;43.612;1.572;2023-05-17T11:50:48;99430.81;;;17.74;49.34
67738;BME280;54534;43.612;1.572;2023-05-17T11:53:14;99418.38;;;17.74;48.94
67738;BME280;54534;43.612;1.572;2023-05-17T11:55:42;99415.72;;;17.74;49.19
67738;BME280;54534;43.612;1.572;2023-05-17T11:58:09;99417.50;;;17.74;49.19
67738;BME280;54534;43.612;1.572;2023-05-17T12:00:36;99415.72;;;17.74;49.06
67738;BME280;54534;43.612;1.572;2023-05-17T12:03:22;99418.38;;;17.74;48.75
67738;BME280;54534;43.612;1.572;2023-05-17T12:06:05;99419.22;;;17.75;48.91
67738;BME280;54534;43.612;1.572;2023-05-17T12:08:32;99413.06;;;17.74;49.20
67738;BME280;54534;43.612;1.572;2023-05-17T12:10:58;99421.88;;;17.75;49.26
67738;BME280;54534;43.612;1.572;2023-05-17T12:13:27;99413.91;;;17.75;48.75
67738;BME280;54534;43.612;1.572;2023-05-17T12:15:55;99411.25;;;17.75;48.73
67738;BME280;54534;43.612;1.572;2023-05-17T12:18:21;99408.59;;;17.75;49.03
67738;BME280;54534;43.612;1.572;2023-05-17T12:20:57;99411.25;;;17.75;49.23
67738;BME280;54534;43.612;1.572;2023-05-17T12:23:33;99399.63;;;17.76;48.67
67738;BME280;54534;43.612;1.572;2023-05-17T12:26:06;99405.06;;;17.74;48.76
67738;BME280;54534;43.612;1.572;2023-05-17T12:28:33;99407.72;;;17.74;48.84
67738;BME280;54534;43.612;1.572;2023-05-17T12:31:00;99403.28;;;17.75;48.84
67738;BME280;54534;43.612;1.572;2023-05-17T12:33:34;99406.78;;;17.75;49.12
67738;BME280;54534;43.612;1.572;2023-05-17T12:36:01;99410.25;;;17.76;48.90
67738;BME280;54534;43.612;1.572;2023-05-17T12:38:29;99405.94;;;17.75;48.97
67738;BME280;54534;43.612;1.572;2023-05-17T12:41:02;99406.78;;;17.75;48.81
67738;BME280;54534;43.612;1.572;2023-05-17T12:43:37;99404.22;;;17.74;49.02
67738;BME280;54534;43.612;1.572;2023-05-17T12:48:32;99405.94;;;17.75;48.92
67738;BME280;54534;43.612;1.572;2023-05-17T12:51:04;99398.81;;;17.75;48.78
67738;BME280;54534;43.612;1.572;2023-05-17T12:53:34;99392.63;;;17.75;49.22
67738;BME280;54534;43.612;1.572;2023-05-17T12:56:01;99396.97;;;17.76;48.96
67738;BME280;54534;43.612;1.572;2023-05-17T12:58:26;99388.16;;;17.75;48.90
67738;BME280;54534;43.612;1.572;2023-05-17T13:01:02;99399.63;;;17.76;48.77
67738;BME280;54534;43.612;1.572;2023-05-17T13:03:28;99392.63;;;17.75;49.19
67738;BME280;54534;43.612;1.572;2023-05-17T13:06:05;99381.88;;;17.76;48.65
67738;BME280;54534;43.612;1.572;2023-05-17T13:08:32;99378.34;;;17.76;49.12
67738;BME280;54534;43.612;1.572;2023-05-17T13:11:13;99378.34;;;17.76;49.26
67738;BME280;54534;43.612;1.572;2023-05-17T13:13:40;99380.19;;;17.75;48.81